createdAt,value
2018-09-04T00:00:17.202Z,1012.17
2018-09-04T00:01:17.188Z,1012.19
2018-09-04T00:02:17.174Z,1012.14
2018-09-04T00:03:17.161Z,1012.10
2018-09-04T00:04:17.146Z,1012.09
2018-09-04T00:05:17.132Z,1012.13
2018-09-04T00:06:17.119Z,1012.10
2018-09-04T00:07:17.107Z,1012.10
2018-09-04T00:08:17.093Z,1012.10
2018-09-04T00:09:17.076Z,1012.09
2018-09-04T00:10:17.067Z,1012.05
2018-09-04T00:11:17.056Z,1012.04
2018-09-04T00:12:17.036Z,1012.03
2018-09-04T00:13:17.024Z,1012.03
2018-09-04T00:14:17.009Z,1011.96
2018-09-04T00:15:16.996Z,1011.99
2018-09-04T00:16:16.980Z,1011.96
2018-09-04T00:17:16.967Z,1011.95
2018-09-04T00:18:16.954Z,1011.93
2018-09-04T00:19:16.939Z,1011.91
2018-09-04T00:20:16.931Z,1011.91
2018-09-04T00:21:16.911Z,1011.94
2018-09-04T00:22:16.897Z,1011.92
2018-09-04T00:23:16.884Z,1011.92
2018-09-04T00:24:16.870Z,1011.93
2018-09-04T00:25:16.855Z,1011.92
2018-09-04T00:26:16.841Z,1011.90
2018-09-04T00:27:16.827Z,1011.94
2018-09-04T00:28:16.812Z,1011.93
2018-09-04T00:29:16.801Z,1011.89
2018-09-04T00:30:16.785Z,1011.92
2018-09-04T00:31:16.773Z,1011.91
2018-09-04T00:32:16.764Z,1011.89
2018-09-04T00:33:16.748Z,1011.90
2018-09-04T00:34:16.785Z,1011.89
2018-09-04T00:35:16.715Z,1011.90
2018-09-04T00:36:16.707Z,1011.89
2018-09-04T00:37:16.692Z,1011.87
2018-09-04T00:38:16.675Z,1011.90
2018-09-04T00:39:16.664Z,1011.89
2018-09-04T00:40:16.646Z,1011.94
2018-09-04T00:41:16.632Z,1011.91
2018-09-04T00:42:16.620Z,1011.93
2018-09-04T00:43:16.604Z,1011.89
2018-09-04T00:44:16.589Z,1011.90
2018-09-04T00:45:16.576Z,1011.88
2018-09-04T00:46:16.563Z,1011.90
2018-09-04T00:47:16.553Z,1011.89
2018-09-04T00:48:16.536Z,1011.93
2018-09-04T00:49:16.518Z,1011.93
2018-09-04T00:50:16.505Z,1011.91
2018-09-04T00:51:16.491Z,1011.93
2018-09-04T00:52:16.474Z,1011.90
2018-09-04T00:53:16.464Z,1011.91
2018-09-04T00:54:16.453Z,1011.90
2018-09-04T00:55:16.432Z,1011.87
2018-09-04T00:56:16.419Z,1011.90
2018-09-04T00:57:16.404Z,1011.88
2018-09-04T00:58:16.391Z,1011.87
2018-09-04T00:59:16.381Z,1011.87
2018-09-04T01:00:16.367Z,1011.83
2018-09-04T01:01:16.349Z,1011.88
2018-09-04T01:02:16.333Z,1011.92
2018-09-04T01:03:16.325Z,1011.92
2018-09-04T01:04:16.308Z,1011.88
2018-09-04T01:05:16.293Z,1011.93
2018-09-04T01:06:16.282Z,1011.91
2018-09-04T01:07:16.261Z,1011.89
2018-09-04T01:08:16.250Z,1011.86
2018-09-04T01:09:16.234Z,1011.89
2018-09-04T01:10:16.221Z,1011.90
2018-09-04T01:11:16.205Z,1011.91
2018-09-04T01:12:16.192Z,1011.94
2018-09-04T01:13:16.179Z,1011.96
2018-09-04T01:14:16.163Z,1011.96
2018-09-04T01:15:16.148Z,1011.96
2018-09-04T01:16:16.133Z,1011.97
2018-09-04T01:17:16.123Z,1011.97
2018-09-04T01:18:16.107Z,1011.98
2018-09-04T01:19:16.093Z,1011.99
2018-09-04T01:20:16.077Z,1011.98
2018-09-04T01:21:16.062Z,1011.96
2018-09-04T01:22:16.047Z,1011.96
2018-09-04T01:23:16.033Z,1011.98
2018-09-04T01:24:16.020Z,1011.95
2018-09-04T01:25:16.209Z,1011.95
2018-09-04T01:26:15.989Z,1011.95
2018-09-04T01:27:15.975Z,1011.93
2018-09-04T01:28:15.959Z,1011.92
2018-09-04T01:29:15.947Z,1011.96
2018-09-04T01:30:15.932Z,1011.92
2018-09-04T01:31:15.918Z,1011.92
2018-09-04T01:32:15.903Z,1011.95
2018-09-04T01:33:15.892Z,1011.97
2018-09-04T01:34:15.873Z,1011.95
2018-09-04T01:35:15.858Z,1011.97
2018-09-04T01:36:15.841Z,1011.98
2018-09-04T01:37:15.827Z,1011.95
2018-09-04T01:38:15.812Z,1011.97
2018-09-04T01:39:15.799Z,1011.97
2018-09-04T01:40:15.787Z,1011.99
2018-09-04T01:41:15.774Z,1012.02
2018-09-04T01:42:15.755Z,1012.01
2018-09-04T01:43:15.739Z,1012.01
2018-09-04T01:44:15.724Z,1012.02
2018-09-04T01:45:15.716Z,1011.99
2018-09-04T01:46:15.696Z,1012.03
2018-09-04T01:47:15.682Z,1012.00
2018-09-04T01:48:15.671Z,1011.99
2018-09-04T01:49:15.653Z,1012.02
2018-09-04T01:50:15.638Z,1011.98
2018-09-04T01:51:15.626Z,1011.99
2018-09-04T01:52:15.608Z,1011.99
2018-09-04T01:53:15.593Z,1011.96
2018-09-04T01:54:15.579Z,1011.94
2018-09-04T01:55:15.565Z,1011.96
2018-09-04T01:56:15.551Z,1011.96
2018-09-04T01:57:15.534Z,1012.00
2018-09-04T01:58:15.520Z,1011.98
2018-09-04T01:59:15.505Z,1011.98
2018-09-04T02:00:15.491Z,1011.98
2018-09-04T02:01:15.476Z,1011.99
2018-09-04T02:02:15.461Z,1011.94
2018-09-04T02:03:15.447Z,1011.95
2018-09-04T02:04:15.433Z,1011.95
2018-09-04T02:05:15.419Z,1011.94
2018-09-04T02:06:15.404Z,1011.93
2018-09-04T02:07:15.386Z,1011.92
2018-09-04T02:08:15.372Z,1011.90
2018-09-04T02:09:15.359Z,1011.94
2018-09-04T02:10:15.343Z,1011.92
2018-09-04T02:11:15.328Z,1011.91
2018-09-04T02:12:15.312Z,1011.94
2018-09-04T02:13:15.302Z,1011.93
2018-09-04T02:14:15.283Z,1011.92
2018-09-04T02:15:15.267Z,1011.95
2018-09-04T02:16:15.251Z,1011.96
2018-09-04T02:17:15.241Z,1011.97
2018-09-04T02:18:15.224Z,1011.96
2018-09-04T02:19:15.208Z,1011.95
2018-09-04T02:20:15.195Z,1011.95
2018-09-04T02:21:15.176Z,1011.94
2018-09-04T02:22:15.168Z,1011.98
2018-09-04T02:23:15.151Z,1011.96
2018-09-04T02:24:15.131Z,1011.97
2018-09-04T02:25:15.118Z,1011.95
2018-09-04T02:26:15.106Z,1011.95
2018-09-04T02:27:15.090Z,1011.93
2018-09-04T02:28:15.075Z,1011.92
2018-09-04T02:29:15.058Z,1011.89
2018-09-04T02:30:15.044Z,1011.89
2018-09-04T02:31:15.029Z,1011.91
2018-09-04T02:32:15.013Z,1011.90
2018-09-04T02:33:15.191Z,1011.88
2018-09-04T02:34:14.983Z,1011.91
2018-09-04T02:35:14.972Z,1011.87
2018-09-04T02:36:15.006Z,1011.91
2018-09-04T02:37:14.943Z,1011.88
2018-09-04T02:38:14.924Z,1011.88
2018-09-04T02:39:14.910Z,1011.92
2018-09-04T02:40:14.894Z,1011.87
2018-09-04T02:41:14.879Z,1011.88
2018-09-04T02:42:14.863Z,1011.88
2018-09-04T02:43:14.849Z,1011.93
2018-09-04T02:44:14.834Z,1011.92
2018-09-04T02:45:14.815Z,1011.93
2018-09-04T02:46:14.802Z,1011.90
2018-09-04T02:47:14.836Z,1011.89
2018-09-04T02:48:14.772Z,1011.91
2018-09-04T02:49:14.758Z,1011.91
2018-09-04T02:50:14.743Z,1011.93
2018-09-04T02:51:14.735Z,1011.89
2018-09-04T02:52:14.713Z,1011.91
2018-09-04T02:53:14.697Z,1011.91
2018-09-04T02:54:14.683Z,1011.91
2018-09-04T02:55:14.668Z,1011.86
2018-09-04T02:56:14.655Z,1011.87
2018-09-04T02:57:14.636Z,1011.87
2018-09-04T02:58:14.620Z,1011.84
2018-09-04T02:59:14.606Z,1011.86
2018-09-04T03:00:14.591Z,1011.89
2018-09-04T03:01:14.579Z,1011.88
2018-09-04T03:02:14.568Z,1011.87
2018-09-04T03:03:14.546Z,1011.89
2018-09-04T03:04:14.529Z,1011.89
2018-09-04T03:05:14.519Z,1011.91
2018-09-04T03:06:14.502Z,1011.88
2018-09-04T03:07:14.489Z,1011.94
2018-09-04T03:08:14.473Z,1011.95
2018-09-04T03:09:14.455Z,1011.95
2018-09-04T03:10:14.444Z,1011.95
2018-09-04T03:11:14.429Z,1011.95
2018-09-04T03:12:14.413Z,1011.94
2018-09-04T03:13:14.398Z,1011.94
2018-09-04T03:14:14.385Z,1011.96
2018-09-04T03:15:14.365Z,1011.90
2018-09-04T03:16:14.349Z,1011.92
2018-09-04T03:17:14.337Z,1011.97
2018-09-04T03:18:14.319Z,1011.93
2018-09-04T03:19:14.303Z,1011.95
2018-09-04T03:20:14.287Z,1011.93
2018-09-04T03:21:14.272Z,1011.97
2018-09-04T03:22:14.258Z,1011.95
2018-09-04T03:23:14.282Z,1011.98
2018-09-04T03:24:14.226Z,1011.91
2018-09-04T03:25:14.212Z,1011.93
2018-09-04T03:26:14.196Z,1011.96
2018-09-04T03:27:14.182Z,1011.91
2018-09-04T03:28:14.165Z,1011.96
2018-09-04T03:29:14.151Z,1011.92
2018-09-04T03:30:14.135Z,1011.90
2018-09-04T03:31:14.121Z,1011.98
2018-09-04T03:32:14.104Z,1011.94
2018-09-04T03:33:14.089Z,1011.94
2018-09-04T03:34:14.073Z,1011.91
2018-09-04T03:35:14.060Z,1011.87
2018-09-04T03:36:14.042Z,1011.93
2018-09-04T03:37:14.027Z,1011.92
2018-09-04T03:38:14.011Z,1011.92
2018-09-04T03:39:14.000Z,1011.93
2018-09-04T03:40:13.982Z,1011.93
2018-09-04T03:41:13.970Z,1011.94
2018-09-04T03:42:14.008Z,1011.93
2018-09-04T03:43:13.937Z,1011.93
2018-09-04T03:44:13.969Z,1011.91
2018-09-04T03:45:13.905Z,1011.96
2018-09-04T03:46:13.888Z,1011.95
2018-09-04T03:47:13.874Z,1011.92
2018-09-04T03:48:13.860Z,1011.95
2018-09-04T03:49:13.843Z,1011.96
2018-09-04T03:50:13.827Z,1011.96
2018-09-04T03:51:13.816Z,1011.97
2018-09-04T03:52:13.804Z,1011.95
2018-09-04T03:53:13.784Z,1011.93
2018-09-04T03:54:13.766Z,1011.90
2018-09-04T03:55:13.753Z,1011.95
2018-09-04T03:56:13.737Z,1011.94
2018-09-04T03:57:13.718Z,1011.97
2018-09-04T03:58:13.712Z,1011.98
2018-09-04T03:59:13.689Z,1011.96
2018-09-04T04:00:13.681Z,1011.96
2018-09-04T04:01:13.664Z,1011.94
2018-09-04T04:02:13.643Z,1011.94
2018-09-04T04:03:13.628Z,1011.96
2018-09-04T04:04:13.612Z,1012.02
2018-09-04T04:05:13.596Z,1012.00
2018-09-04T04:06:13.583Z,1012.00
2018-09-04T04:07:13.567Z,1011.99
2018-09-04T04:08:13.551Z,1011.99
2018-09-04T04:09:13.538Z,1011.98
2018-09-04T04:10:13.521Z,1011.97
2018-09-04T04:11:13.506Z,1011.95
2018-09-04T04:12:13.490Z,1011.98
2018-09-04T04:13:13.474Z,1011.97
2018-09-04T04:14:13.458Z,1011.92
2018-09-04T04:15:13.446Z,1011.98
2018-09-04T04:16:13.427Z,1011.99
2018-09-04T04:17:13.410Z,1011.97
2018-09-04T04:18:13.396Z,1012.00
2018-09-04T04:19:13.383Z,1012.02
2018-09-04T04:20:13.364Z,1012.03
2018-09-04T04:21:13.349Z,1012.01
2018-09-04T04:22:13.332Z,1011.98
2018-09-04T04:23:13.319Z,1012.01
2018-09-04T04:24:13.300Z,1012.02
2018-09-04T04:25:13.288Z,1011.96
2018-09-04T04:26:13.270Z,1012.01
2018-09-04T04:27:13.257Z,1012.00
2018-09-04T04:28:13.239Z,1012.02
2018-09-04T04:29:13.225Z,1012.00
2018-09-04T04:30:13.213Z,1012.02
2018-09-04T04:31:13.197Z,1012.02
2018-09-04T04:32:13.179Z,1012.04
2018-09-04T04:33:13.245Z,1012.02
2018-09-04T04:34:13.147Z,1012.02
2018-09-04T04:35:13.130Z,1012.03
2018-09-04T04:36:13.124Z,1012.02
2018-09-04T04:37:13.104Z,1012.07
2018-09-04T04:38:13.084Z,1012.04
2018-09-04T04:39:13.068Z,1012.06
2018-09-04T04:40:13.125Z,1012.06
2018-09-04T04:41:13.038Z,1012.06
2018-09-04T04:42:13.021Z,1012.11
2018-09-04T04:43:13.009Z,1012.14
2018-09-04T04:44:12.989Z,1012.14
2018-09-04T04:45:12.980Z,1012.15
2018-09-04T04:46:12.959Z,1012.20
2018-09-04T04:47:12.942Z,1012.16
2018-09-04T04:48:12.973Z,1012.21
2018-09-04T04:49:12.911Z,1012.23
2018-09-04T04:50:12.900Z,1012.24
2018-09-04T04:51:12.885Z,1012.23
2018-09-04T04:52:12.865Z,1012.23
2018-09-04T04:53:12.900Z,1012.25
2018-09-04T04:54:12.839Z,1012.26
2018-09-04T04:55:12.823Z,1012.25
2018-09-04T04:56:12.802Z,1012.22
2018-09-04T04:57:12.789Z,1012.26
2018-09-04T04:58:12.772Z,1012.27
2018-09-04T04:59:12.757Z,1012.26
2018-09-04T05:00:12.743Z,1012.26
2018-09-04T05:01:12.724Z,1012.30
2018-09-04T05:02:12.710Z,1012.34
2018-09-04T05:03:12.694Z,1012.34
2018-09-04T05:04:12.679Z,1012.32
2018-09-04T05:05:12.664Z,1012.27
2018-09-04T05:06:12.649Z,1012.29
2018-09-04T05:07:12.631Z,1012.32
2018-09-04T05:08:12.616Z,1012.34
2018-09-04T05:09:12.601Z,1012.34
2018-09-04T05:10:12.585Z,1012.32
2018-09-04T05:11:12.725Z,1012.36
2018-09-04T05:12:12.554Z,1012.37
2018-09-04T05:13:12.540Z,1012.39
2018-09-04T05:14:12.527Z,1012.42
2018-09-04T05:15:12.508Z,1012.41
2018-09-04T05:16:12.492Z,1012.38
2018-09-04T05:17:12.476Z,1012.42
2018-09-04T05:18:12.460Z,1012.39
2018-09-04T05:19:12.444Z,1012.38
2018-09-04T05:20:12.429Z,1012.42
2018-09-04T05:21:12.424Z,1012.46
2018-09-04T05:22:12.399Z,1012.44
2018-09-04T05:23:12.384Z,1012.48
2018-09-04T05:24:12.366Z,1012.47
2018-09-04T05:25:12.354Z,1012.51
2018-09-04T05:26:12.337Z,1012.49
2018-09-04T05:27:12.322Z,1012.52
2018-09-04T05:28:12.303Z,1012.50
2018-09-04T05:29:12.292Z,1012.53
2018-09-04T05:30:12.275Z,1012.56
2018-09-04T05:31:12.258Z,1012.49
2018-09-04T05:32:12.253Z,1012.51
2018-09-04T05:33:12.230Z,1012.54
2018-09-04T05:34:12.217Z,1012.57
2018-09-04T05:35:12.197Z,1012.54
2018-09-04T05:36:12.183Z,1012.58
2018-09-04T05:37:12.168Z,1012.58
2018-09-04T05:38:12.152Z,1012.57
2018-09-04T05:39:12.136Z,1012.52
2018-09-04T05:40:12.118Z,1012.52
2018-09-04T05:41:12.103Z,1012.56
2018-09-04T05:42:12.089Z,1012.59
2018-09-04T05:43:12.075Z,1012.56
2018-09-04T05:44:12.062Z,1012.57
2018-09-04T05:45:12.042Z,1012.54
2018-09-04T05:46:12.029Z,1012.54
2018-09-04T05:47:12.009Z,1012.56
2018-09-04T05:48:11.995Z,1012.54
2018-09-04T05:49:11.985Z,1012.52
2018-09-04T05:50:11.969Z,1012.52
2018-09-04T05:51:11.950Z,1012.53
2018-09-04T05:52:11.934Z,1012.51
2018-09-04T05:53:11.919Z,1012.54
2018-09-04T05:54:11.952Z,1012.52
2018-09-04T05:55:11.898Z,1012.56
2018-09-04T05:56:11.875Z,1012.52
2018-09-04T05:57:11.855Z,1012.52
2018-09-04T05:58:11.847Z,1012.55
2018-09-04T05:59:11.827Z,1012.58
2018-09-04T06:00:11.814Z,1012.59
2018-09-04T06:01:11.796Z,1012.58
2018-09-04T06:02:11.786Z,1012.57
2018-09-04T06:03:11.766Z,1012.55
2018-09-04T06:04:11.749Z,1012.60
2018-09-04T06:05:11.742Z,1012.59
2018-09-04T06:06:11.719Z,1012.54
2018-09-04T06:07:11.706Z,1012.60
2018-09-04T06:08:11.690Z,1012.57
2018-09-04T06:09:11.673Z,1012.58
2018-09-04T06:10:11.659Z,1012.62
2018-09-04T06:11:11.643Z,1012.62
2018-09-04T06:12:11.629Z,1012.59
2018-09-04T06:13:11.613Z,1012.60
2018-09-04T06:14:11.597Z,1012.59
2018-09-04T06:15:11.588Z,1012.59
2018-09-04T06:16:11.570Z,1012.60
2018-09-04T06:17:11.552Z,1012.57
2018-09-04T06:18:11.539Z,1012.58
2018-09-04T06:19:11.524Z,1012.61
2018-09-04T06:20:11.590Z,1012.68
2018-09-04T06:21:11.495Z,1012.64
2018-09-04T06:22:11.481Z,1012.64
2018-09-04T06:23:11.465Z,1012.69
2018-09-04T06:24:11.450Z,1012.64
2018-09-04T06:25:11.434Z,1012.66
2018-09-04T06:26:11.420Z,1012.61
2018-09-04T06:27:11.408Z,1012.62
2018-09-04T06:28:11.393Z,1012.63
2018-09-04T06:29:11.378Z,1012.66
2018-09-04T06:30:11.363Z,1012.62
2018-09-04T06:31:11.345Z,1012.66
2018-09-04T06:32:11.330Z,1012.63
2018-09-04T06:33:11.324Z,1012.61
2018-09-04T06:34:11.397Z,1012.60
2018-09-04T06:35:11.289Z,1012.65
2018-09-04T06:36:11.280Z,1012.64
2018-09-04T06:37:11.283Z,1012.69
2018-09-04T06:38:11.245Z,1012.70
2018-09-04T06:39:11.232Z,1012.70
2018-09-04T06:40:11.216Z,1012.73
2018-09-04T06:41:11.198Z,1012.73
2018-09-04T06:42:11.187Z,1012.78
2018-09-04T06:43:11.172Z,1012.73
2018-09-04T06:44:11.162Z,1012.78
2018-09-04T06:45:11.145Z,1012.82
2018-09-04T06:46:11.131Z,1012.81
2018-09-04T06:47:11.123Z,1012.83
2018-09-04T06:48:11.106Z,1012.90
2018-09-04T06:49:11.100Z,1012.84
2018-09-04T06:50:11.070Z,1012.90
2018-09-04T06:51:11.059Z,1012.88
2018-09-04T06:52:11.044Z,1012.89
2018-09-04T06:53:11.028Z,1012.90
2018-09-04T06:54:11.016Z,1012.90
2018-09-04T06:55:11.001Z,1012.91
2018-09-04T06:56:10.986Z,1012.95
2018-09-04T06:57:10.972Z,1012.93
2018-09-04T06:58:10.958Z,1013.01
2018-09-04T06:59:10.944Z,1013.03
2018-09-04T07:00:10.930Z,1013.04
2018-09-04T07:01:10.921Z,1013.05
2018-09-04T07:02:10.903Z,1013.06
2018-09-04T07:03:10.892Z,1013.09
2018-09-04T07:04:10.875Z,1013.20
2018-09-04T07:05:10.863Z,1013.30
2018-09-04T07:06:10.919Z,1013.49
2018-09-04T07:07:10.834Z,1013.61
2018-09-04T07:08:10.822Z,1013.69
2018-09-04T07:09:10.808Z,1013.64
2018-09-04T07:10:10.794Z,1013.72
2018-09-04T07:11:10.782Z,1013.78
2018-09-04T07:12:10.768Z,1013.80
2018-09-04T07:13:10.755Z,1013.89
2018-09-04T07:14:10.745Z,1013.92
2018-09-04T07:15:10.734Z,1014.00
2018-09-04T07:16:10.717Z,1014.11
2018-09-04T07:17:10.850Z,1014.23
2018-09-04T07:18:10.693Z,1014.31
2018-09-04T07:19:10.681Z,1014.56
2018-09-04T07:20:10.672Z,1014.72
2018-09-04T07:21:10.657Z,1014.89
2018-09-04T07:22:10.646Z,1015.32
2018-09-04T07:23:10.636Z,1015.72
2018-09-04T07:24:10.622Z,1016.21
2018-09-04T07:25:10.613Z,1017.17
2018-09-04T07:26:10.605Z,1017.72
2018-09-04T07:27:10.590Z,1017.59
2018-09-04T07:28:10.579Z,1018.36
2018-09-04T07:29:10.571Z,1019.56
2018-09-04T07:30:10.560Z,1020.74
2018-09-04T07:31:10.553Z,1021.54
2018-09-04T07:32:10.539Z,1021.52
2018-09-04T07:33:10.529Z,1021.47
2018-09-04T07:34:10.520Z,1021.48
2018-09-04T07:35:10.511Z,1021.49
2018-09-04T07:36:10.501Z,1021.53
2018-09-04T07:37:10.493Z,1021.63
2018-09-04T07:38:10.484Z,1022.41
2018-09-04T07:39:10.475Z,1023.42
2018-09-04T07:40:10.468Z,1024.82
2018-09-04T07:41:10.462Z,1026.02
2018-09-04T07:42:10.453Z,1026.52
2018-09-04T07:43:10.442Z,1026.69
2018-09-04T07:44:10.434Z,1027.10
2018-09-04T07:45:10.428Z,1027.96
2018-09-04T07:46:10.419Z,1028.17
2018-09-04T07:47:10.415Z,1027.68
2018-09-04T07:48:10.407Z,1027.73
2018-09-04T07:49:10.406Z,1028.60
2018-09-04T07:50:10.395Z,1029.38
2018-09-04T07:51:10.389Z,1029.91
2018-09-04T07:52:10.387Z,1029.15
2018-09-04T07:53:10.374Z,1028.21
2018-09-04T07:54:10.367Z,1028.26
2018-09-04T07:55:10.383Z,1028.90
2018-09-04T07:56:10.360Z,1029.10
2018-09-04T07:57:10.356Z,1029.37
2018-09-04T07:58:10.342Z,1029.37
2018-09-04T07:59:10.344Z,1029.21
2018-09-04T08:00:10.330Z,1028.38
2018-09-04T08:01:10.325Z,1027.66
2018-09-04T08:02:10.342Z,1027.68
2018-09-04T08:03:10.316Z,1028.36
2018-09-04T08:04:10.310Z,1028.71
2018-09-04T08:05:10.308Z,1028.76
2018-09-04T08:06:10.300Z,1028.69
2018-09-04T08:07:10.300Z,1028.86
2018-09-04T08:08:10.291Z,1028.73
2018-09-04T08:09:10.285Z,1029.73
2018-09-04T08:10:10.389Z,1030.31
2018-09-04T08:11:10.275Z,1030.19
2018-09-04T08:12:10.270Z,1029.85
2018-09-04T08:13:10.270Z,1029.24
2018-09-04T08:14:10.262Z,1029.67
2018-09-04T08:15:10.259Z,1030.23
2018-09-04T08:16:10.256Z,1030.56
2018-09-04T08:17:10.250Z,1030.35
2018-09-04T08:18:10.263Z,1030.05
2018-09-04T08:19:10.243Z,1030.03
2018-09-04T08:20:10.235Z,1030.72
2018-09-04T08:21:10.231Z,1030.96
2018-09-04T08:22:10.228Z,1031.56
2018-09-04T08:23:10.222Z,1031.57
2018-09-04T08:24:10.219Z,1030.74
2018-09-04T08:25:10.215Z,1029.84
2018-09-04T08:26:10.244Z,1030.02
2018-09-04T08:27:10.205Z,1030.01
2018-09-04T08:28:10.203Z,1029.92
2018-09-04T08:29:10.203Z,1029.55
2018-09-04T08:30:10.194Z,1029.24
2018-09-04T08:31:10.191Z,1028.98
2018-09-04T08:32:10.187Z,1028.85
2018-09-04T08:33:10.186Z,1028.15
2018-09-04T08:34:10.181Z,1026.72
2018-09-04T08:35:10.176Z,1025.49
2018-09-04T08:36:10.176Z,1024.78
2018-09-04T08:37:10.172Z,1024.42
2018-09-04T08:38:10.171Z,1023.76
2018-09-04T08:39:10.167Z,1023.27
2018-09-04T08:40:10.316Z,1023.61
2018-09-04T08:41:10.159Z,1023.35
2018-09-04T08:42:10.153Z,1023.86
2018-09-04T08:43:10.160Z,1024.18
2018-09-04T08:44:10.148Z,1024.08
2018-09-04T08:45:10.143Z,1023.40
2018-09-04T08:46:10.142Z,1023.01
2018-09-04T08:47:10.170Z,1022.80
2018-09-04T08:48:10.136Z,1022.13
2018-09-04T08:49:10.133Z,1022.00
2018-09-04T08:50:10.134Z,1022.08
2018-09-04T08:51:10.128Z,1021.92
2018-09-04T08:52:10.122Z,1020.81
2018-09-04T08:53:10.164Z,1020.12
2018-09-04T08:54:10.120Z,1019.38
2018-09-04T08:55:10.142Z,1018.22
2018-09-04T08:56:10.115Z,1017.81
2018-09-04T08:57:10.111Z,1018.41
2018-09-04T08:58:10.108Z,1018.70
2018-09-04T08:59:10.107Z,1019.05
2018-09-04T09:00:10.103Z,1019.31
2018-09-04T09:01:10.102Z,1018.69
2018-09-04T09:02:10.100Z,1017.49
2018-09-04T09:03:10.099Z,1016.67
2018-09-04T09:04:10.097Z,1016.20
2018-09-04T09:05:10.093Z,1015.74
2018-09-04T09:06:10.097Z,1015.31
2018-09-04T09:07:10.089Z,1015.04
2018-09-04T09:08:10.087Z,1014.99
2018-09-04T09:09:10.089Z,1014.73
2018-09-04T09:10:10.165Z,1014.66
2018-09-04T09:11:10.081Z,1014.39
2018-09-04T09:12:10.079Z,1014.18
2018-09-04T09:13:10.077Z,1013.99
2018-09-04T09:14:10.076Z,1013.80
2018-09-04T09:15:10.074Z,1013.78
2018-09-04T09:16:10.071Z,1013.68
2018-09-04T09:17:10.069Z,1013.65
2018-09-04T09:18:10.068Z,1013.58
2018-09-04T09:19:10.067Z,1013.56
2018-09-04T09:20:10.063Z,1013.53
2018-09-04T09:21:10.064Z,1013.51
2018-09-04T09:22:10.065Z,1013.49
2018-09-04T09:23:10.065Z,1013.54
2018-09-04T09:24:10.061Z,1013.51
2018-09-04T09:25:10.060Z,1013.50
2018-09-04T09:26:10.055Z,1013.50
2018-09-04T09:27:10.066Z,1013.54
2018-09-04T09:28:10.052Z,1013.52
2018-09-04T09:29:10.052Z,1013.51
2018-09-04T09:30:10.048Z,1013.54
2018-09-04T09:31:10.051Z,1013.57
2018-09-04T09:32:10.048Z,1013.62
2018-09-04T09:33:10.044Z,1013.47
2018-09-04T09:34:10.049Z,1013.16
2018-09-04T09:35:10.105Z,1012.99
2018-09-04T09:36:10.041Z,1012.94
2018-09-04T09:37:10.041Z,1012.97
2018-09-04T09:38:10.041Z,1012.91
2018-09-04T09:39:10.036Z,1013.01
2018-09-04T09:40:10.037Z,1013.43
2018-09-04T09:41:10.041Z,1013.57
2018-09-04T09:42:10.039Z,1013.59
2018-09-04T09:43:10.035Z,1013.56
2018-09-04T09:44:10.029Z,1013.32
2018-09-04T09:45:10.030Z,1013.04
2018-09-04T09:46:10.025Z,1013.22
2018-09-04T09:47:10.029Z,1013.55
2018-09-04T09:48:10.022Z,1013.60
2018-09-04T09:49:10.027Z,1013.59
2018-09-04T09:50:10.020Z,1013.65
2018-09-04T09:51:10.019Z,1013.62
2018-09-04T09:52:10.018Z,1013.69
2018-09-04T09:53:10.123Z,1013.64
2018-09-04T09:54:10.017Z,1013.68
2018-09-04T09:55:10.024Z,1013.70
2018-09-04T09:56:10.124Z,1013.68
2018-09-04T09:57:10.011Z,1013.72
2018-09-04T09:58:10.011Z,1013.73
2018-09-04T09:59:10.021Z,1013.72
2018-09-04T10:00:10.071Z,1013.67
2018-09-04T10:01:10.014Z,1013.64
2018-09-04T10:02:10.008Z,1013.65
2018-09-04T10:03:10.010Z,1013.63
2018-09-04T10:04:10.093Z,1013.71
2018-09-04T10:05:10.015Z,1013.77
2018-09-04T10:06:10.008Z,1013.84
2018-09-04T10:07:10.006Z,1013.89
2018-09-04T10:08:10.205Z,1013.01
2018-09-04T10:09:10.007Z,1013.86
2018-09-04T10:10:10.060Z,1013.66
2018-09-04T10:11:10.038Z,1012.54
2018-09-04T10:12:10.007Z,1012.58
2018-09-04T10:13:10.007Z,1012.57
2018-09-04T10:14:10.007Z,1012.59
2018-09-04T10:15:10.010Z,1013.92
2018-09-04T10:16:10.005Z,1013.95
2018-09-04T10:17:10.007Z,1013.90
2018-09-04T10:18:10.007Z,1013.93
2018-09-04T10:19:10.005Z,1014.00
2018-09-04T10:20:10.006Z,1014.00
2018-09-04T10:21:10.020Z,1014.02
2018-09-04T10:22:10.005Z,1014.04
2018-09-04T10:23:10.004Z,1014.07
2018-09-04T10:24:10.004Z,1014.07
2018-09-04T10:25:10.014Z,1014.09
2018-09-04T10:26:10.006Z,1014.08
2018-09-04T10:27:10.013Z,1014.00
2018-09-04T10:28:10.006Z,1013.98
2018-09-04T10:29:10.016Z,1014.08
2018-09-04T10:30:10.008Z,1014.07
2018-09-04T10:31:10.009Z,1014.09
2018-09-04T10:32:10.010Z,1014.15
2018-09-04T10:33:10.012Z,1014.27
2018-09-04T10:34:10.010Z,1014.35
2018-09-04T10:35:10.010Z,1014.29
2018-09-04T10:36:10.051Z,1012.68
2018-09-04T10:37:10.014Z,1012.71
2018-09-04T10:38:10.015Z,1012.64
2018-09-04T10:39:10.020Z,1012.69
2018-09-04T10:40:10.016Z,1012.72
2018-09-04T10:41:10.017Z,1012.95
2018-09-04T10:42:10.071Z,1014.35
2018-09-04T10:43:10.018Z,1014.36
2018-09-04T10:44:10.022Z,1014.20
2018-09-04T10:45:10.021Z,1014.21
2018-09-04T10:46:10.020Z,1013.25
2018-09-04T10:47:10.027Z,1013.83
2018-09-04T10:48:10.021Z,1012.54
2018-09-04T10:49:10.022Z,1012.56
2018-09-04T10:50:10.023Z,1014.38
2018-09-04T10:51:10.026Z,1014.38
2018-09-04T10:52:10.025Z,1014.45
2018-09-04T10:53:10.025Z,1014.49
2018-09-04T10:54:10.026Z,1014.47
2018-09-04T10:55:10.026Z,1014.45
2018-09-04T10:56:10.031Z,1014.41
2018-09-04T10:57:10.030Z,1014.35
2018-09-04T10:58:10.029Z,1014.37
2018-09-04T10:59:10.029Z,1014.37
2018-09-04T11:00:10.030Z,1014.34
2018-09-04T11:01:10.030Z,1014.30
2018-09-04T11:02:10.039Z,1014.23
2018-09-04T11:03:10.035Z,1014.21
2018-09-04T11:04:10.037Z,1014.13
2018-09-04T11:05:10.037Z,1014.09
2018-09-04T11:06:10.040Z,1014.02
2018-09-04T11:07:10.040Z,1013.99
2018-09-04T11:08:10.042Z,1013.99
2018-09-04T11:09:10.086Z,1013.98
2018-09-04T11:10:10.045Z,1013.98
2018-09-04T11:11:10.053Z,1013.89
2018-09-04T11:12:10.051Z,1013.80
2018-09-04T11:13:10.053Z,1013.77
2018-09-04T11:14:10.060Z,1013.69
2018-09-04T11:15:10.059Z,1013.70
2018-09-04T11:16:10.061Z,1012.39
2018-09-04T11:17:10.063Z,1012.10
2018-09-04T11:18:10.069Z,1012.13
2018-09-04T11:19:10.066Z,1012.18
2018-09-04T11:20:10.069Z,1012.24
2018-09-04T11:21:10.072Z,1012.22
2018-09-04T11:22:10.074Z,1012.20
2018-09-04T11:23:10.082Z,1013.48
2018-09-04T11:24:10.077Z,1012.90
2018-09-04T11:25:10.080Z,1012.15
2018-09-04T11:26:10.086Z,1012.11
2018-09-04T11:27:10.085Z,1012.05
2018-09-04T11:28:10.084Z,1012.09
2018-09-04T11:29:10.083Z,1012.14
2018-09-04T11:30:10.087Z,1012.23
2018-09-04T11:31:10.088Z,1012.81
2018-09-04T11:32:10.086Z,1013.21
2018-09-04T11:33:10.088Z,1013.19
2018-09-04T11:34:10.088Z,1013.19
2018-09-04T11:35:10.088Z,1013.21
2018-09-04T11:36:10.088Z,1013.13
2018-09-04T11:37:10.088Z,1013.13
2018-09-04T11:38:10.089Z,1013.08
2018-09-04T11:39:10.090Z,1013.16
2018-09-04T11:40:10.098Z,1012.84
2018-09-04T11:41:10.090Z,1013.18
2018-09-04T11:42:10.093Z,1012.19
2018-09-04T11:43:10.091Z,1012.16
2018-09-04T11:44:10.143Z,1012.22
2018-09-04T11:45:10.093Z,1012.20
2018-09-04T11:46:10.093Z,1012.17
2018-09-04T11:47:10.095Z,1012.14
2018-09-04T11:48:10.094Z,1012.14
2018-09-04T11:49:10.092Z,1012.12
2018-09-04T11:50:10.094Z,1012.15
2018-09-04T11:51:10.096Z,1012.24
2018-09-04T11:52:10.093Z,1012.87
2018-09-04T11:53:10.093Z,1013.04
2018-09-04T11:54:10.094Z,1013.04
2018-09-04T11:55:10.091Z,1012.99
2018-09-04T11:56:10.091Z,1013.02
2018-09-04T11:57:10.090Z,1013.07
2018-09-04T11:58:10.096Z,1013.07
2018-09-04T11:59:10.093Z,1012.98
2018-09-04T12:00:10.092Z,1012.90
2018-09-04T12:01:10.092Z,1012.95
2018-09-04T12:02:10.146Z,1013.03
2018-09-04T12:03:10.094Z,1012.99
2018-09-04T12:04:10.089Z,1013.01
2018-09-04T12:05:10.093Z,1013.01